Time;durP1;ratioP1;P1;durP2;ratioP2;P2;SDS_P1;SDS_P2;PMS_P1;PMS_P2;Temp;Humidity;BMP_temperature;BMP_pressure;BME280_temperature;BME280_humidity;BME280_pressure;Samples;Min_cycle;Max_cycle;Signal;HPM_P1;HPM_P2
2022/04/04 00:00:45;;;;;;;6.95;2.45;;;;;;;;;;4938141;29;20173;-62
2022/04/04 00:03:11;;;;;;;5.78;2.40;;;;;;;;;;4937591;29;20177;-63
2022/04/04 00:05:38;;;;;;;5.07;2.30;;;;;;;;;;4937453;29;20215;-63
2022/04/04 00:08:04;;;;;;;7.70;2.60;;;;;;;;;;4937664;29;20176;-63
2022/04/04 00:10:30;;;;;;;4.13;2.30;;;;;;;;;;4937374;29;20180;-63
2022/04/04 00:12:56;;;;;;;8.43;2.90;;;;;;;;;;4937178;29;20248;-63
2022/04/04 00:15:22;;;;;;;5.25;2.47;;;;;;;;;;4937427;29;20263;-63
2022/04/04 00:17:48;;;;;;;5.63;2.38;;;;;;;;;;4937403;29;20192;-63
2022/04/04 00:20:14;;;;;;;4.20;2.45;;;;;;;;;;4937486;29;20173;-63
2022/04/04 00:22:41;;;;;;;2.75;2.20;;;;;;;;;;4936333;29;20173;-63
2022/04/04 00:25:08;;;;;;;7.03;2.58;;;;;;;;;;4937548;29;20196;-63
2022/04/04 00:27:34;;;;;;;4.97;2.47;;;;;;;;;;4937485;29;20320;-63
2022/04/04 00:30:00;;;;;;;4.20;2.63;;;;;;;;;;4937238;29;20183;-63
2022/04/04 00:32:26;;;;;;;7.68;2.50;;;;;;;;;;4936936;29;20169;-64
2022/04/04 00:34:52;;;;;;;6.32;2.50;;;;;;;;;;4937106;29;20249;-64
2022/04/04 00:37:18;;;;;;;4.60;2.28;;;;;;;;;;4937255;29;20506;-64
2022/04/04 00:39:44;;;;;;;7.40;3.00;;;;;;;;;;4937343;29;20165;-63
2022/04/04 00:42:10;;;;;;;6.18;2.35;;;;;;;;;;4938035;29;20534;-63
2022/04/04 00:44:36;;;;;;;5.72;2.63;;;;;;;;;;4937108;29;20519;-64
2022/04/04 00:47:02;;;;;;;7.07;3.00;;;;;;;;;;4936794;29;20183;-64
2022/04/04 00:49:28;;;;;;;6.22;3.50;;;;;;;;;;4937006;29;20374;-63
2022/04/04 00:51:55;;;;;;;7.50;2.60;;;;;;;;;;4936964;29;20256;-64
2022/04/04 00:54:21;;;;;;;4.30;2.63;;;;;;;;;;4937254;29;20168;-64
2022/04/04 00:56:46;;;;;;;4.70;2.83;;;;;;;;;;4936977;29;20169;-63
2022/04/04 00:59:16;;;;;;;5.88;2.75;;;;;;;;;;4936932;29;20169;-64
2022/04/04 01:01:42;;;;;;;8.48;3.10;;;;;;;;;;4936621;29;20205;-64
2022/04/04 01:04:12;;;;;;;8.73;2.88;;;;;;;;;;4936625;29;20188;-64
2022/04/04 01:06:39;;;;;;;5.18;3.00;;;;;;;;;;4936994;29;20165;-64
2022/04/04 01:09:05;;;;;;;6.25;2.90;;;;;;;;;;4936802;29;20169;-64
2022/04/04 01:11:31;;;;;;;5.55;2.72;;;;;;;;;;4936602;29;20224;-64
2022/04/04 01:13:57;;;;;;;5.45;2.70;;;;;;;;;;4936479;29;20169;-64
2022/04/04 01:16:23;;;;;;;4.93;2.63;;;;;;;;;;4936639;29;20259;-64
2022/04/04 01:18:49;;;;;;;4.20;2.70;;;;;;;;;;4936660;29;20165;-63
2022/04/04 01:21:19;;;;;;;5.57;2.60;;;;;;;;;;4936974;29;20248;-63
2022/04/04 01:23:45;;;;;;;6.25;2.75;;;;;;;;;;4936755;29;20505;-63
2022/04/04 01:26:12;;;;;;;4.68;2.50;;;;;;;;;;4936666;29;20512;-63
2022/04/04 01:28:39;;;;;;;5.60;2.67;;;;;;;;;;4936689;29;20180;-63
2022/04/04 01:31:05;;;;;;;4.00;2.33;;;;;;;;;;4936775;29;20169;-63
2022/04/04 01:33:31;;;;;;;7.22;3.10;;;;;;;;;;4937673;29;20171;-63
2022/04/04 01:35:57;;;;;;;4.60;2.67;;;;;;;;;;4940566;29;20169;-63
2022/04/04 01:38:23;;;;;;;3.38;2.20;;;;;;;;;;4940645;29;20172;-63
2022/04/04 01:40:50;;;;;;;11.45;2.92;;;;;;;;;;4940695;29;20203;-64
2022/04/04 01:43:16;;;;;;;8.05;2.75;;;;;;;;;;4941212;29;20542;-64
2022/04/04 01:48:26;;;;;;;5.43;3.13;;;;;;;;;;4943038;29;20217;-64
2022/04/04 01:50:52;;;;;;;4.90;2.95;;;;;;;;;;4943705;29;20177;-64
2022/04/04 01:53:27;;;;;;;7.53;3.00;;;;;;;;;;4941291;29;20179;-64
2022/04/04 01:56:04;;;;;;;4.88;2.55;;;;;;;;;;4940322;29;20490;-64
2022/04/04 01:58:30;;;;;;;7.43;2.83;;;;;;;;;;4940032;29;20168;-64
2022/04/04 02:00:58;;;;;;;5.75;2.88;;;;;;;;;;4939862;29;20169;-64
2022/04/04 02:03:25;;;;;;;5.75;3.05;;;;;;;;;;4939897;29;20180;-64
2022/04/04 02:05:51;;;;;;;6.05;2.90;;;;;;;;;;4939543;29;20275;-64
2022/04/04 02:08:17;;;;;;;4.85;3.15;;;;;;;;;;4939905;29;20169;-64
2022/04/04 02:10:44;;;;;;;6.95;3.42;;;;;;;;;;4939757;29;20539;-64
2022/04/04 02:13:10;;;;;;;7.00;2.90;;;;;;;;;;4939831;29;20468;-64
2022/04/04 02:15:36;;;;;;;7.75;3.20;;;;;;;;;;4939339;29;20176;-64
2022/04/04 02:18:02;;;;;;;6.40;2.60;;;;;;;;;;4939393;29;20621;-64
2022/04/04 02:20:28;;;;;;;8.50;3.63;;;;;;;;;;4939366;29;20252;-64
2022/04/04 02:22:54;;;;;;;6.18;3.60;;;;;;;;;;4939401;29;20169;-64
2022/04/04 02:25:20;;;;;;;5.65;3.13;;;;;;;;;;4939709;29;20192;-64
2022/04/04 02:27:46;;;;;;;5.03;3.20;;;;;;;;;;4939516;29;20260;-64
2022/04/04 02:30:12;;;;;;;5.20;3.20;;;;;;;;;;4939141;29;20185;-64
2022/04/04 02:32:38;;;;;;;4.97;3.22;;;;;;;;;;4939478;29;20169;-64
2022/04/04 02:35:05;;;;;;;6.32;2.78;;;;;;;;;;4938987;29;20501;-64
2022/04/04 02:37:31;;;;;;;3.80;2.72;;;;;;;;;;4939099;29;20256;-63
2022/04/04 02:39:56;;;;;;;5.47;3.10;;;;;;;;;;4939187;29;20513;-63
2022/04/04 02:42:23;;;;;;;8.30;3.35;;;;;;;;;;4939462;29;20213;-64
2022/04/04 02:44:49;;;;;;;3.67;2.80;;;;;;;;;;4938445;29;20220;-64
2022/04/04 02:47:14;;;;;;;6.93;2.65;;;;;;;;;;4938724;29;20605;-64
2022/04/04 02:49:40;;;;;;;6.68;2.97;;;;;;;;;;4938747;29;20161;-64
2022/04/04 02:52:06;;;;;;;3.83;2.53;;;;;;;;;;4938923;29;20169;-64
2022/04/04 02:54:32;;;;;;;7.53;2.75;;;;;;;;;;4938685;29;20176;-64
2022/04/04 02:56:58;;;;;;;7.22;3.05;;;;;;;;;;4938680;29;20165;-64
2022/04/04 02:59:24;;;;;;;6.05;3.17;;;;;;;;;;4938649;29;20177;-64
2022/04/04 03:01:50;;;;;;;3.70;2.53;;;;;;;;;;4939976;29;20228;-64
2022/04/04 03:04:17;;;;;;;5.63;2.85;;;;;;;;;;4938702;29;20652;-64
2022/04/04 03:06:43;;;;;;;6.15;2.70;;;;;;;;;;4938789;29;20629;-63
2022/04/04 03:09:09;;;;;;;2.70;2.40;;;;;;;;;;4938784;29;20173;-63
2022/04/04 03:11:35;;;;;;;4.72;2.97;;;;;;;;;;4938569;29;20195;-64
2022/04/04 03:14:01;;;;;;;3.33;2.85;;;;;;;;;;4938694;29;20171;-63
2022/04/04 03:16:27;;;;;;;5.97;3.10;;;;;;;;;;4938350;29;20593;-63
2022/04/04 03:18:57;;;;;;;5.70;2.85;;;;;;;;;;4938569;29;20165;-64
2022/04/04 03:21:23;;;;;;;5.43;2.97;;;;;;;;;;4938559;29;20489;-64
2022/04/04 03:23:49;;;;;;;10.07;3.00;;;;;;;;;;4938403;29;20244;-64
2022/04/04 03:26:15;;;;;;;8.30;3.10;;;;;;;;;;4938334;29;20557;-64
2022/04/04 03:28:41;;;;;;;5.53;2.88;;;;;;;;;;4938316;29;20228;-64
2022/04/04 03:31:07;;;;;;;3.35;2.63;;;;;;;;;;4938348;29;20301;-64
2022/04/04 03:33:34;;;;;;;3.63;2.55;;;;;;;;;;4938102;29;20173;-64
2022/04/04 03:36:00;;;;;;;5.20;3.00;;;;;;;;;;4938223;29;20211;-64
2022/04/04 03:38:26;;;;;;;4.70;2.72;;;;;;;;;;4938059;29;20209;-64
2022/04/04 03:40:52;;;;;;;5.00;2.47;;;;;;;;;;4937934;29;20169;-63
2022/04/04 03:43:18;;;;;;;6.55;3.10;;;;;;;;;;4938024;29;20251;-64
2022/04/04 03:45:44;;;;;;;4.68;2.50;;;;;;;;;;4938150;29;20287;-64
2022/04/04 03:48:10;;;;;;;5.15;2.50;;;;;;;;;;4937944;29;20180;-64
2022/04/04 03:50:36;;;;;;;4.45;2.40;;;;;;;;;;4937941;29;20169;-64
2022/04/04 03:53:03;;;;;;;6.50;2.85;;;;;;;;;;4937765;29;20256;-64
2022/04/04 03:55:33;;;;;;;7.10;2.50;;;;;;;;;;4938001;29;20184;-64
2022/04/04 03:57:59;;;;;;;3.05;2.22;;;;;;;;;;4936591;29;20621;-64
2022/04/04 04:00:26;;;;;;;4.75;2.38;;;;;;;;;;4937794;29;20173;-65
2022/04/04 04:02:52;;;;;;;4.97;2.53;;;;;;;;;;4937556;29;20590;-64
2022/04/04 04:05:18;;;;;;;5.38;2.40;;;;;;;;;;4937588;29;20588;-64
2022/04/04 04:07:44;;;;;;;4.03;2.15;;;;;;;;;;4937371;29;20224;-63
2022/04/04 04:10:13;;;;;;;2.97;2.30;;;;;;;;;;4937391;29;20181;-64
2022/04/04 04:12:40;;;;;;;2.83;2.30;;;;;;;;;;4937646;29;20173;-64
2022/04/04 04:15:06;;;;;;;3.42;2.38;;;;;;;;;;4937166;29;20578;-64
2022/04/04 04:17:32;;;;;;;4.60;2.58;;;;;;;;;;4937129;29;20196;-64
2022/04/04 04:22:43;;;;;;;5.50;2.65;;;;;;;;;;4937690;29;20240;-64
2022/04/04 04:25:09;;;;;;;2.58;2.28;;;;;;;;;;4937253;29;20201;-63
2022/04/04 04:27:35;;;;;;;4.15;2.30;;;;;;;;;;4937133;29;20513;-63
2022/04/04 04:30:01;;;;;;;5.45;2.67;;;;;;;;;;4937216;29;20169;-64
2022/04/04 04:32:27;;;;;;;4.03;2.70;;;;;;;;;;4937064;29;20161;-64
2022/04/04 04:34:53;;;;;;;3.25;2.63;;;;;;;;;;4937319;29;20564;-64
2022/04/04 04:37:21;;;;;;;3.70;2.58;;;;;;;;;;4937032;29;20173;-64
2022/04/04 04:39:47;;;;;;;4.28;2.50;;;;;;;;;;4937388;29;20176;-64
2022/04/04 04:42:13;;;;;;;3.97;2.90;;;;;;;;;;4937003;29;20633;-64
2022/04/04 04:44:39;;;;;;;5.40;3.22;;;;;;;;;;4936930;29;20572;-64
2022/04/04 04:47:05;;;;;;;6.18;3.10;;;;;;;;;;4936803;29;20256;-64
2022/04/04 04:49:31;;;;;;;3.75;2.83;;;;;;;;;;4937159;29;20173;-64
2022/04/04 04:51:57;;;;;;;3.72;2.90;;;;;;;;;;4936767;29;20503;-64
2022/04/04 04:54:25;;;;;;;4.38;2.90;;;;;;;;;;4935936;29;20201;-62
2022/04/04 04:56:51;;;;;;;5.93;2.75;;;;;;;;;;4936736;29;20261;-64
2022/04/04 04:59:17;;;;;;;3.30;2.95;;;;;;;;;;4936782;29;20169;-64
2022/04/04 05:01:43;;;;;;;6.13;3.40;;;;;;;;;;4936757;29;20177;-64
2022/04/04 05:04:09;;;;;;;8.02;3.58;;;;;;;;;;4937845;29;20180;-64
2022/04/04 05:06:35;;;;;;;6.47;3.85;;;;;;;;;;4936600;29;20196;-64
2022/04/04 05:09:04;;;;;;;4.22;3.40;;;;;;;;;;4936673;29;20501;-64
2022/04/04 05:11:31;;;;;;;6.47;3.65;;;;;;;;;;4936829;29;20164;-63
2022/04/04 05:13:56;;;;;;;5.15;3.17;;;;;;;;;;4936820;29;20334;-64
2022/04/04 05:16:28;;;;;;;3.70;3.08;;;;;;;;;;4936364;29;20637;-65
2022/04/04 05:18:54;;;;;;;5.90;3.20;;;;;;;;;;4937021;29;20252;-64
2022/04/04 05:21:21;;;;;;;6.03;3.10;;;;;;;;;;4937031;29;20236;-64
2022/04/04 05:23:47;;;;;;;5.95;2.95;;;;;;;;;;4937018;29;20305;-64
2022/04/04 05:26:13;;;;;;;3.85;2.90;;;;;;;;;;4936365;29;20196;-64
2022/04/04 05:28:39;;;;;;;4.43;2.75;;;;;;;;;;4936761;29;20168;-64
2022/04/04 05:31:05;;;;;;;4.47;3.03;;;;;;;;;;4936325;29;20175;-64
2022/04/04 05:33:31;;;;;;;3.10;2.72;;;;;;;;;;4936958;29;20228;-64
2022/04/04 05:35:57;;;;;;;4.05;2.60;;;;;;;;;;4936938;29;20240;-64
2022/04/04 05:38:23;;;;;;;4.30;2.58;;;;;;;;;;4937003;29;20181;-64
2022/04/04 05:40:49;;;;;;;4.63;2.65;;;;;;;;;;4936671;29;20251;-64
2022/04/04 05:43:15;;;;;;;5.95;2.50;;;;;;;;;;4936791;29;20597;-63
2022/04/04 05:45:41;;;;;;;3.88;2.53;;;;;;;;;;4936364;29;20193;-63
2022/04/04 05:48:07;;;;;;;3.40;2.30;;;;;;;;;;4936304;29;20179;-64
2022/04/04 05:50:34;;;;;;;3.17;2.40;;;;;;;;;;4937049;29;20179;-63
2022/04/04 05:53:00;;;;;;;4.97;2.13;;;;;;;;;;4936400;29;20295;-62
2022/04/04 05:55:26;;;;;;;4.70;2.50;;;;;;;;;;4936093;29;20200;-64
2022/04/04 05:57:51;;;;;;;3.05;2.05;;;;;;;;;;4936045;29;20173;-64
2022/04/04 06:00:17;;;;;;;3.00;2.30;;;;;;;;;;4936467;29;20169;-63
2022/04/04 06:02:44;;;;;;;5.22;2.05;;;;;;;;;;4936159;29;20223;-64
2022/04/04 06:05:11;;;;;;;2.78;2.20;;;;;;;;;;4935981;29;20196;-64
2022/04/04 06:07:38;;;;;;;5.43;2.10;;;;;;;;;;4936056;29;20180;-63
2022/04/04 06:10:05;;;;;;;3.70;2.08;;;;;;;;;;4936333;29;20649;-63
2022/04/04 06:12:31;;;;;;;2.03;1.83;;;;;;;;;;4936670;29;20345;-64
2022/04/04 06:14:57;;;;;;;2.58;2.20;;;;;;;;;;4936070;29;20173;-64
2022/04/04 06:17:23;;;;;;;4.45;2.35;;;;;;;;;;4936087;29;20275;-64
2022/04/04 06:19:49;;;;;;;4.15;1.88;;;;;;;;;;4936191;29;20176;-64
2022/04/04 06:22:15;;;;;;;4.78;2.25;;;;;;;;;;4939313;29;20165;-65
2022/04/04 06:24:41;;;;;;;4.28;2.10;;;;;;;;;;4940035;29;20499;-63
2022/04/04 06:27:07;;;;;;;2.63;2.00;;;;;;;;;;4939797;29;20173;-63
2022/04/04 06:29:33;;;;;;;4.55;2.60;;;;;;;;;;4940127;29;20302;-64
2022/04/04 06:31:59;;;;;;;3.75;2.28;;;;;;;;;;4940124;29;20247;-64
2022/04/04 06:34:25;;;;;;;3.17;2.22;;;;;;;;;;4940502;29;20165;-64
2022/04/04 06:36:52;;;;;;;2.67;2.30;;;;;;;;;;4940508;29;20161;-64
2022/04/04 06:39:18;;;;;;;4.65;2.33;;;;;;;;;;4940331;29;20176;-64
2022/04/04 06:41:45;;;;;;;3.38;2.50;;;;;;;;;;4940119;29;20165;-64
2022/04/04 06:44:11;;;;;;;3.00;2.20;;;;;;;;;;4940003;29;20165;-64
2022/04/04 06:46:37;;;;;;;3.67;2.58;;;;;;;;;;4939575;29;20542;-64
2022/04/04 06:49:04;;;;;;;3.10;2.40;;;;;;;;;;4940251;29;20243;-64
2022/04/04 06:51:30;;;;;;;4.75;2.45;;;;;;;;;;4940207;29;20244;-64
2022/04/04 06:53:56;;;;;;;2.90;2.03;;;;;;;;;;4939944;29;20192;-64
2022/04/04 06:56:22;;;;;;;3.92;2.40;;;;;;;;;;4940150;29;20264;-64
2022/04/04 06:58:48;;;;;;;5.22;2.65;;;;;;;;;;4940270;29;20200;-64
2022/04/04 07:01:14;;;;;;;3.20;2.47;;;;;;;;;;4940626;29;20184;-63
2022/04/04 07:03:40;;;;;;;5.35;2.55;;;;;;;;;;4944610;29;20169;-64
2022/04/04 07:06:07;;;;;;;3.40;2.55;;;;;;;;;;4946194;29;20193;-64
2022/04/04 07:08:33;;;;;;;6.47;2.72;;;;;;;;;;4942507;29;20585;-64
2022/04/04 07:11:00;;;;;;;3.38;2.70;;;;;;;;;;4943055;29;20169;-64
2022/04/04 07:13:26;;;;;;;5.03;2.90;;;;;;;;;;4942134;29;20612;-64
2022/04/04 07:15:52;;;;;;;4.50;3.25;;;;;;;;;;4943262;29;20173;-64
2022/04/04 07:18:18;;;;;;;6.28;3.45;;;;;;;;;;4946889;29;20196;-64
2022/04/04 07:20:44;;;;;;;5.38;3.33;;;;;;;;;;4948260;29;20185;-64
2022/04/04 07:23:10;;;;;;;4.78;3.00;;;;;;;;;;4948129;29;20185;-64
2022/04/04 07:25:36;;;;;;;7.20;3.83;;;;;;;;;;4950754;29;20196;-64
2022/04/04 07:28:02;;;;;;;4.40;3.67;;;;;;;;;;4950546;29;20161;-63
2022/04/04 07:30:28;;;;;;;5.03;3.75;;;;;;;;;;4956868;29;20164;-64
2022/04/04 07:32:54;;;;;;;5.85;3.90;;;;;;;;;;4956549;29;20165;-64
2022/04/04 07:35:21;;;;;;;6.40;4.28;;;;;;;;;;4956395;29;20219;-64
2022/04/04 07:37:47;;;;;;;5.75;3.70;;;;;;;;;;4956888;29;20184;-64
2022/04/04 07:40:14;;;;;;;4.20;3.65;;;;;;;;;;4956367;29;20201;-64
2022/04/04 07:42:41;;;;;;;8.02;4.60;;;;;;;;;;4954225;29;20169;-64
2022/04/04 07:45:08;;;;;;;8.50;4.50;;;;;;;;;;4948508;29;20196;-63
2022/04/04 07:47:34;;;;;;;6.47;4.70;;;;;;;;;;4938085;29;20251;-64
2022/04/04 07:50:00;;;;;;;8.93;4.65;;;;;;;;;;4938466;29;20244;-64
2022/04/04 07:52:27;;;;;;;6.55;4.65;;;;;;;;;;4938141;29;20301;-63
2022/04/04 07:54:53;;;;;;;6.03;5.05;;;;;;;;;;4938104;29;20176;-64
2022/04/04 07:57:19;;;;;;;7.72;5.43;;;;;;;;;;4938207;29;20179;-62
2022/04/04 07:59:45;;;;;;;7.15;5.47;;;;;;;;;;4938156;29;20184;-64
2022/04/04 08:02:11;;;;;;;7.38;5.38;;;;;;;;;;4937952;29;20173;-63
2022/04/04 08:04:38;;;;;;;8.13;5.55;;;;;;;;;;4937480;29;20239;-63
2022/04/04 08:07:04;;;;;;;9.63;5.72;;;;;;;;;;4937787;29;20173;-63
2022/04/04 08:09:30;;;;;;;6.22;5.38;;;;;;;;;;4937431;29;20169;-64
2022/04/04 08:11:57;;;;;;;9.50;6.20;;;;;;;;;;4937561;29;20256;-63
2022/04/04 08:14:23;;;;;;;7.90;5.97;;;;;;;;;;4937571;29;20197;-64
2022/04/04 08:16:49;;;;;;;7.95;6.05;;;;;;;;;;4937237;29;20264;-63
2022/04/04 08:19:16;;;;;;;8.23;5.95;;;;;;;;;;4937323;29;20176;-63
2022/04/04 08:21:42;;;;;;;10.32;5.63;;;;;;;;;;4937178;29;20625;-63
2022/04/04 08:24:08;;;;;;;10.57;6.55;;;;;;;;;;4937484;29;20260;-63
2022/04/04 08:26:34;;;;;;;8.60;6.22;;;;;;;;;;4937517;29;20231;-63
2022/04/04 08:29:00;;;;;;;9.25;6.53;;;;;;;;;;4937879;29;20515;-62
2022/04/04 08:31:26;;;;;;;7.88;6.50;;;;;;;;;;4937437;29;20253;-63
2022/04/04 08:33:53;;;;;;;9.63;7.03;;;;;;;;;;4937278;29;20510;-64
2022/04/04 08:36:19;;;;;;;10.05;6.50;;;;;;;;;;4937874;29;20177;-64
2022/04/04 08:38:45;;;;;;;7.82;6.60;;;;;;;;;;4937166;29;20177;-64
2022/04/04 08:41:11;;;;;;;8.38;6.47;;;;;;;;;;4937044;29;20476;-63
2022/04/04 08:43:38;;;;;;;9.52;6.90;;;;;;;;;;4936404;29;20184;-63
2022/04/04 08:46:06;;;;;;;9.10;6.60;;;;;;;;;;4937193;29;20215;-63
2022/04/04 08:48:33;;;;;;;8.35;6.88;;;;;;;;;;4937460;29;20184;-64
2022/04/04 08:50:59;;;;;;;9.40;6.78;;;;;;;;;;4937050;29;20271;-64
2022/04/04 08:53:25;;;;;;;8.02;6.60;;;;;;;;;;4936630;29;20172;-64
2022/04/04 08:55:52;;;;;;;11.45;6.95;;;;;;;;;;4936581;29;20169;-63
2022/04/04 08:58:18;;;;;;;7.22;6.40;;;;;;;;;;4936896;29;20271;-63
2022/04/04 09:00:44;;;;;;;9.88;7.00;;;;;;;;;;4936532;29;20176;-63
2022/04/04 09:03:10;;;;;;;7.75;6.53;;;;;;;;;;4936436;29;20165;-63
2022/04/04 09:05:55;;;;;;;10.00;6.63;;;;;;;;;;4936715;29;20204;-62
2022/04/04 09:08:23;;;;;;;8.05;6.47;;;;;;;;;;4936319;29;20176;-63
2022/04/04 09:10:50;;;;;;;7.82;5.82;;;;;;;;;;4936493;29;20199;-65
2022/04/04 09:13:18;;;;;;;7.85;6.72;;;;;;;;;;4936700;29;20173;-64
2022/04/04 09:16:00;;;;;;;8.35;6.50;;;;;;;;;;4936399;29;20185;-64
2022/04/04 09:18:41;;;;;;;6.82;5.85;;;;;;;;;;4936299;29;20502;-64
2022/04/04 09:21:08;;;;;;;9.10;5.65;;;;;;;;;;4936795;29;20470;-64
2022/04/04 09:23:35;;;;;;;8.77;6.88;;;;;;;;;;4951391;29;20173;-63
2022/04/04 09:26:01;;;;;;;7.53;6.68;;;;;;;;;;4936341;29;20188;-64
2022/04/04 09:28:27;;;;;;;7.07;6.03;;;;;;;;;;4936284;29;20656;-64
2022/04/04 09:31:07;;;;;;;7.88;6.78;;;;;;;;;;4936233;29;20609;-63
2022/04/04 09:33:40;;;;;;;8.02;6.93;;;;;;;;;;4936177;29;20578;-64
2022/04/04 09:36:09;;;;;;;8.02;6.80;;;;;;;;;;4936815;29;20625;-63
2022/04/04 09:38:35;;;;;;;7.90;6.28;;;;;;;;;;4936599;29;20180;-64
2022/04/04 09:41:20;;;;;;;9.05;6.82;;;;;;;;;;4936507;29;20177;-63
2022/04/04 09:43:53;;;;;;;9.40;7.00;;;;;;;;;;4936695;29;20161;-63
2022/04/04 09:46:19;;;;;;;8.18;7.10;;;;;;;;;;4936900;29;20530;-64
2022/04/04 09:49:04;;;;;;;9.02;7.32;;;;;;;;;;4936794;29;20259;-64
2022/04/04 09:51:39;;;;;;;8.88;7.10;;;;;;;;;;4936154;29;20639;-63
2022/04/04 09:54:06;;;;;;;8.70;6.78;;;;;;;;;;4936261;29;20633;-62
2022/04/04 09:56:32;;;;;;;8.85;7.50;;;;;;;;;;4940374;29;20183;-63
2022/04/04 09:59:00;;;;;;;8.13;7.25;;;;;;;;;;4940155;29;20475;-62
2022/04/04 10:01:27;;;;;;;10.63;7.40;;;;;;;;;;4940270;29;20181;-63
2022/04/04 10:03:53;;;;;;;7.80;7.00;;;;;;;;;;4939957;29;20177;-63
2022/04/04 10:06:19;;;;;;;8.65;7.55;;;;;;;;;;4939872;29;20197;-63
2022/04/04 10:08:46;;;;;;;8.88;7.40;;;;;;;;;;4939718;29;20180;-64
2022/04/04 10:11:13;;;;;;;8.93;7.43;;;;;;;;;;4939751;29;20236;-63
2022/04/04 10:13:39;;;;;;;9.65;7.47;;;;;;;;;;4940153;29;20215;-63
2022/04/04 10:16:05;;;;;;;9.25;7.53;;;;;;;;;;4939708;29;20252;-64
2022/04/04 10:18:32;;;;;;;7.57;6.68;;;;;;;;;;4939437;29;20199;-64
2022/04/04 10:20:58;;;;;;;9.13;7.47;;;;;;;;;;4939582;29;20224;-63
2022/04/04 10:23:25;;;;;;;8.23;7.40;;;;;;;;;;4939585;29;20252;-63
2022/04/04 10:25:52;;;;;;;8.75;7.70;;;;;;;;;;4939274;29;20200;-63
2022/04/04 10:28:27;;;;;;;9.15;7.45;;;;;;;;;;4939343;29;20617;-62
2022/04/04 10:30:57;;;;;;;10.23;7.47;;;;;;;;;;4939283;29;20168;-63
2022/04/04 10:33:23;;;;;;;9.85;7.95;;;;;;;;;;4939258;29;20252;-63
2022/04/04 10:36:06;;;;;;;9.85;7.80;;;;;;;;;;4939131;29;20173;-63
2022/04/04 10:38:32;;;;;;;8.23;7.38;;;;;;;;;;4939251;29;20231;-63
2022/04/04 10:41:01;;;;;;;9.57;7.50;;;;;;;;;;4939220;29;20172;-63
2022/04/04 10:43:31;;;;;;;8.27;7.35;;;;;;;;;;4939115;29;20172;-64
2022/04/04 10:45:58;;;;;;;8.73;7.68;;;;;;;;;;4938959;29;20189;-64
2022/04/04 10:48:35;;;;;;;8.90;7.22;;;;;;;;;;4939234;29;20179;-64
2022/04/04 10:51:02;;;;;;;7.75;6.95;;;;;;;;;;4939384;29;20157;-63
2022/04/04 10:53:48;;;;;;;10.65;9.18;;;;;;;;;;4938068;29;20413;-64
2022/04/04 10:56:30;;;;;;;8.70;7.68;;;;;;;;;;4932265;29;20621;-65
2022/04/04 10:59:15;;;;;;;7.45;6.57;;;;;;;;;;4939628;29;20173;-63
2022/04/04 11:01:42;;;;;;;7.95;7.15;;;;;;;;;;4949458;29;20169;-63
2022/04/04 11:04:22;;;;;;;7.75;6.80;;;;;;;;;;4939111;29;20169;-64
2022/04/04 11:09:46;;;;;;;8.63;7.78;;;;;;;;;;4938358;29;20556;-64
2022/04/04 11:12:13;;;;;;;7.47;6.60;;;;;;;;;;4939056;29;20158;-64
2022/04/04 11:14:41;;;;;;;9.27;7.50;;;;;;;;;;4938659;29;20251;-63
2022/04/04 11:17:07;;;;;;;7.32;6.55;;;;;;;;;;4938677;29;20193;-63
2022/04/04 11:19:53;;;;;;;7.28;6.57;;;;;;;;;;4938730;29;20272;-64
2022/04/04 11:22:23;;;;;;;7.20;6.50;;;;;;;;;;4938748;29;20169;-64
2022/04/04 11:24:58;;;;;;;7.65;6.60;;;;;;;;;;4938311;29;20172;-64
2022/04/04 11:27:27;;;;;;;7.95;6.68;;;;;;;;;;4938377;29;20177;-63
2022/04/04 11:29:53;;;;;;;8.18;7.38;;;;;;;;;;4938461;29;20180;-63
2022/04/04 11:32:28;;;;;;;8.02;6.78;;;;;;;;;;4938148;29;20236;-64
2022/04/04 11:34:57;;;;;;;8.77;7.13;;;;;;;;;;4938431;29;20243;-64
2022/04/04 11:37:26;;;;;;;7.43;6.53;;;;;;;;;;4938368;29;20183;-64
2022/04/04 11:39:59;;;;;;;9.27;6.55;;;;;;;;;;4938129;29;20172;-63
2022/04/04 11:42:25;;;;;;;8.48;6.80;;;;;;;;;;4938440;29;20213;-63
2022/04/04 11:44:52;;;;;;;7.72;6.50;;;;;;;;;;4938143;29;20177;-63
2022/04/04 11:47:18;;;;;;;6.93;6.22;;;;;;;;;;4938100;29;20184;-64
2022/04/04 11:49:44;;;;;;;7.07;6.38;;;;;;;;;;4938093;29;20161;-63
2022/04/04 11:52:14;;;;;;;7.78;6.53;;;;;;;;;;4937952;29;20165;-63
2022/04/04 11:54:44;;;;;;;9.20;7.40;;;;;;;;;;4938155;29;20530;-63
2022/04/04 11:57:12;;;;;;;7.53;6.68;;;;;;;;;;4937715;29;20180;-63
2022/04/04 11:59:41;;;;;;;7.63;6.93;;;;;;;;;;4938149;29;20236;-64
2022/04/04 12:02:11;;;;;;;8.25;7.20;;;;;;;;;;4937740;29;20173;-64
2022/04/04 12:04:37;;;;;;;7.68;6.88;;;;;;;;;;4937836;29;20475;-64
2022/04/04 12:07:04;;;;;;;7.57;6.63;;;;;;;;;;4937897;29;20563;-64
2022/04/04 12:09:30;;;;;;;7.90;7.10;;;;;;;;;;4938183;29;20173;-64
2022/04/04 12:12:10;;;;;;;7.60;6.72;;;;;;;;;;4938030;29;20244;-64
2022/04/04 12:14:37;;;;;;;7.47;6.55;;;;;;;;;;4937830;29;20184;-64
2022/04/04 12:17:04;;;;;;;7.45;6.65;;;;;;;;;;4937514;29;20259;-63
2022/04/04 12:19:30;;;;;;;8.45;7.25;;;;;;;;;;4937125;29;20186;-62
2022/04/04 12:21:57;;;;;;;7.47;6.78;;;;;;;;;;4937855;29;20276;-64
2022/04/04 12:27:12;;;;;;;6.57;5.93;;;;;;;;;;4937610;29;20180;-65
2022/04/04 12:29:44;;;;;;;7.63;6.47;;;;;;;;;;4937492;29;20176;-64
2022/04/04 12:32:18;;;;;;;7.75;6.35;;;;;;;;;;4937931;29;20177;-64
2022/04/04 12:35:06;;;;;;;6.47;5.65;;;;;;;;;;4937729;29;20173;-65
2022/04/04 12:37:35;;;;;;;6.80;6.07;;;;;;;;;;4937874;29;20228;-63
2022/04/04 12:40:13;;;;;;;6.72;5.43;;;;;;;;;;4937303;29;20264;-64
2022/04/04 12:42:39;;;;;;;8.05;5.50;;;;;;;;;;4937276;29;20164;-64
2022/04/04 12:45:05;;;;;;;5.93;4.82;;;;;;;;;;4938137;29;20523;-64
2022/04/04 12:47:31;;;;;;;6.10;5.45;;;;;;;;;;4938136;29;20169;-65
2022/04/04 12:50:13;;;;;;;5.60;4.80;;;;;;;;;;4939071;29;20596;-64
2022/04/04 12:52:57;;;;;;;5.53;5.03;;;;;;;;;;4937522;29;20213;-64
2022/04/04 12:55:23;;;;;;;5.45;4.85;;;;;;;;;;4937407;29;20256;-63
2022/04/04 12:57:49;;;;;;;5.53;5.03;;;;;;;;;;4937663;29;20259;-64
2022/04/04 13:00:25;;;;;;;6.22;5.13;;;;;;;;;;4952589;29;20264;-64
2022/04/04 13:02:51;;;;;;;6.18;5.32;;;;;;;;;;4937376;29;20617;-64
2022/04/04 13:05:18;;;;;;;6.05;5.45;;;;;;;;;;4939202;29;20196;-64
2022/04/04 13:07:51;;;;;;;5.68;4.95;;;;;;;;;;4938783;29;20504;-63
2022/04/04 13:10:18;;;;;;;5.40;4.90;;;;;;;;;;4938019;29;20173;-64
2022/04/04 13:12:45;;;;;;;5.03;4.53;;;;;;;;;;4937644;29;20224;-64
2022/04/04 13:15:11;;;;;;;5.28;4.78;;;;;;;;;;4937253;29;20169;-64
2022/04/04 13:17:38;;;;;;;5.70;4.68;;;;;;;;;;4936449;29;20292;-64
2022/04/04 13:20:05;;;;;;;5.32;4.70;;;;;;;;;;4936546;29;20191;-64
2022/04/04 13:22:31;;;;;;;6.38;4.63;;;;;;;;;;4936666;29;20220;-64
2022/04/04 13:24:57;;;;;;;5.13;4.63;;;;;;;;;;4936543;29;20526;-64
2022/04/04 13:27:24;;;;;;;5.13;4.63;;;;;;;;;;4936445;29;20177;-64
2022/04/04 13:29:50;;;;;;;5.45;4.95;;;;;;;;;;4939638;29;20201;-63
2022/04/04 13:32:16;;;;;;;5.80;5.20;;;;;;;;;;4943133;29;20660;-63
2022/04/04 13:34:42;;;;;;;6.55;5.28;;;;;;;;;;4942869;29;20165;-63
2022/04/04 13:37:08;;;;;;;6.30;5.13;;;;;;;;;;4943008;29;20259;-63
2022/04/04 13:39:35;;;;;;;5.28;4.78;;;;;;;;;;4943380;29;20207;-63
2022/04/04 13:42:01;;;;;;;5.05;4.55;;;;;;;;;;4943180;29;20179;-63
2022/04/04 13:44:27;;;;;;;6.47;4.82;;;;;;;;;;4942688;29;20173;-63
2022/04/04 13:46:53;;;;;;;7.32;5.00;;;;;;;;;;4942989;29;20193;-64
2022/04/04 13:49:19;;;;;;;5.47;4.35;;;;;;;;;;4942971;29;20539;-64
2022/04/04 13:51:45;;;;;;;4.63;4.22;;;;;;;;;;4942860;29;20242;-63
2022/04/04 13:54:11;;;;;;;5.65;5.05;;;;;;;;;;4942719;29;20231;-63
2022/04/04 13:56:37;;;;;;;4.90;4.40;;;;;;;;;;4942326;29;20175;-65
2022/04/04 13:59:04;;;;;;;4.65;4.18;;;;;;;;;;4942701;29;20187;-64
2022/04/04 14:01:30;;;;;;;6.13;4.57;;;;;;;;;;4942692;29;20176;-63
2022/04/04 14:03:56;;;;;;;5.25;4.75;;;;;;;;;;4942762;29;20176;-65
2022/04/04 14:06:22;;;;;;;4.25;3.85;;;;;;;;;;4942700;29;20287;-63
2022/04/04 14:08:49;;;;;;;5.82;4.60;;;;;;;;;;4942443;29;20176;-65
2022/04/04 14:11:15;;;;;;;5.25;4.75;;;;;;;;;;4942641;29;20173;-63
2022/04/04 14:13:43;;;;;;;4.57;4.18;;;;;;;;;;4942274;29;20169;-63
2022/04/04 14:16:10;;;;;;;4.70;4.22;;;;;;;;;;4942804;29;20547;-64
2022/04/04 14:18:36;;;;;;;5.53;4.10;;;;;;;;;;4942618;29;20244;-64
2022/04/04 14:21:03;;;;;;;4.72;4.20;;;;;;;;;;4942615;29;20177;-62
2022/04/04 14:23:28;;;;;;;5.03;4.40;;;;;;;;;;4942369;29;20554;-64
2022/04/04 14:25:55;;;;;;;4.10;3.70;;;;;;;;;;4942472;29;20193;-64
2022/04/04 14:28:22;;;;;;;4.43;3.83;;;;;;;;;;4942520;29;20223;-64
2022/04/04 14:30:49;;;;;;;4.50;3.58;;;;;;;;;;4942635;29;20169;-65
2022/04/04 14:33:16;;;;;;;3.92;3.53;;;;;;;;;;4942325;29;20165;-64
2022/04/04 14:35:43;;;;;;;4.30;3.80;;;;;;;;;;4942413;29;20169;-66
2022/04/04 14:38:09;;;;;;;4.00;3.60;;;;;;;;;;4942355;29;20168;-64
2022/04/04 14:40:39;;;;;;;3.95;3.53;;;;;;;;;;4941477;29;20219;-65
2022/04/04 14:43:05;;;;;;;3.70;3.35;;;;;;;;;;4938566;29;20577;-65
2022/04/04 14:45:31;;;;;;;4.10;3.70;;;;;;;;;;4939204;29;20196;-65
2022/04/04 14:47:57;;;;;;;4.40;2.97;;;;;;;;;;4939013;29;20475;-65
2022/04/04 14:50:23;;;;;;;3.40;3.10;;;;;;;;;;4939118;29;20184;-65
2022/04/04 14:52:50;;;;;;;3.92;3.33;;;;;;;;;;4938905;29;20169;-65
2022/04/04 14:55:16;;;;;;;3.70;3.35;;;;;;;;;;4939340;29;20184;-65